sensor_id;sensor_type;location;lat;lon;timestamp;P1;durP1;ratioP1;P2;durP2;ratioP2
20743;SDS011;56303;52.160;-0.428;2022-10-13T00:00:11;10.57;;;4.47;;
20743;SDS011;56303;52.160;-0.428;2022-10-13T00:02:38;11.57;;;4.20;;
20743;SDS011;56303;52.160;-0.428;2022-10-13T00:05:05;7.83;;;4.10;;
20743;SDS011;56303;52.160;-0.428;2022-10-13T00:07:32;9.83;;;4.30;;
20743;SDS011;56303;52.160;-0.428;2022-10-13T00:09:59;9.37;;;4.07;;
20743;SDS011;56303;52.160;-0.428;2022-10-13T00:12:26;10.57;;;4.90;;
20743;SDS011;56303;52.160;-0.428;2022-10-13T00:14:53;10.77;;;4.73;;
20743;SDS011;56303;52.160;-0.428;2022-10-13T00:17:20;7.93;;;4.47;;
20743;SDS011;56303;52.160;-0.428;2022-10-13T00:19:46;10.50;;;4.20;;
20743;SDS011;56303;52.160;-0.428;2022-10-13T00:22:13;8.70;;;4.47;;
20743;SDS011;56303;52.160;-0.428;2022-10-13T00:24:40;12.77;;;4.97;;
20743;SDS011;56303;52.160;-0.428;2022-10-13T00:27:07;7.00;;;4.23;;
20743;SDS011;56303;52.160;-0.428;2022-10-13T00:29:33;10.20;;;4.30;;
20743;SDS011;56303;52.160;-0.428;2022-10-13T00:32:00;11.00;;;4.60;;
20743;SDS011;56303;52.160;-0.428;2022-10-13T00:34:27;8.57;;;4.57;;
20743;SDS011;56303;52.160;-0.428;2022-10-13T00:36:54;8.50;;;4.63;;
20743;SDS011;56303;52.160;-0.428;2022-10-13T00:39:20;10.10;;;4.97;;
20743;SDS011;56303;52.160;-0.428;2022-10-13T00:41:47;11.27;;;5.07;;
20743;SDS011;56303;52.160;-0.428;2022-10-13T00:47:22;8.60;;;4.47;;
20743;SDS011;56303;52.160;-0.428;2022-10-13T00:49:52;9.67;;;5.37;;
20743;SDS011;56303;52.160;-0.428;2022-10-13T00:52:20;9.43;;;5.13;;
20743;SDS011;56303;52.160;-0.428;2022-10-13T00:54:48;8.50;;;5.30;;
20743;SDS011;56303;52.160;-0.428;2022-10-13T00:57:16;14.00;;;5.20;;
20743;SDS011;56303;52.160;-0.428;2022-10-13T00:59:46;13.23;;;5.43;;
20743;SDS011;56303;52.160;-0.428;2022-10-13T01:02:14;9.53;;;5.23;;
20743;SDS011;56303;52.160;-0.428;2022-10-13T01:04:44;11.13;;;5.17;;
20743;SDS011;56303;52.160;-0.428;2022-10-13T01:07:13;9.40;;;5.50;;
20743;SDS011;56303;52.160;-0.428;2022-10-13T01:09:42;11.23;;;5.80;;
20743;SDS011;56303;52.160;-0.428;2022-10-13T01:15:11;11.60;;;6.13;;
20743;SDS011;56303;52.160;-0.428;2022-10-13T01:20:35;9.60;;;5.13;;
20743;SDS011;56303;52.160;-0.428;2022-10-13T01:31:22;9.40;;;6.43;;
20743;SDS011;56303;52.160;-0.428;2022-10-13T01:34:17;9.40;;;5.80;;
20743;SDS011;56303;52.160;-0.428;2022-10-13T01:36:56;7.63;;;5.63;;
20743;SDS011;56303;52.160;-0.428;2022-10-13T01:39:53;12.70;;;6.53;;
20743;SDS011;56303;52.160;-0.428;2022-10-13T01:42:52;12.87;;;6.17;;
20743;SDS011;56303;52.160;-0.428;2022-10-13T01:45:30;9.37;;;5.70;;
20743;SDS011;56303;52.160;-0.428;2022-10-13T01:48:02;9.70;;;6.17;;
20743;SDS011;56303;52.160;-0.428;2022-10-13T01:50:31;13.30;;;6.70;;
20743;SDS011;56303;52.160;-0.428;2022-10-13T01:53:00;12.77;;;7.43;;
20743;SDS011;56303;52.160;-0.428;2022-10-13T01:55:30;8.63;;;7.40;;
20743;SDS011;56303;52.160;-0.428;2022-10-13T01:57:57;12.20;;;8.20;;
20743;SDS011;56303;52.160;-0.428;2022-10-13T02:00:24;10.70;;;7.03;;
20743;SDS011;56303;52.160;-0.428;2022-10-13T02:02:54;13.60;;;7.20;;
20743;SDS011;56303;52.160;-0.428;2022-10-13T02:05:56;13.03;;;7.60;;
20743;SDS011;56303;52.160;-0.428;2022-10-13T02:11:49;11.60;;;7.10;;
20743;SDS011;56303;52.160;-0.428;2022-10-13T02:14:23;11.47;;;7.13;;
20743;SDS011;56303;52.160;-0.428;2022-10-13T02:16:52;13.83;;;8.13;;
20743;SDS011;56303;52.160;-0.428;2022-10-13T02:19:21;9.50;;;7.33;;
20743;SDS011;56303;52.160;-0.428;2022-10-13T02:21:48;10.33;;;7.50;;
20743;SDS011;56303;52.160;-0.428;2022-10-13T02:24:17;11.13;;;7.67;;
20743;SDS011;56303;52.160;-0.428;2022-10-13T02:26:43;12.10;;;7.80;;
20743;SDS011;56303;52.160;-0.428;2022-10-13T02:29:12;11.53;;;7.83;;
20743;SDS011;56303;52.160;-0.428;2022-10-13T02:31:42;9.83;;;6.73;;
20743;SDS011;56303;52.160;-0.428;2022-10-13T02:34:10;12.90;;;7.43;;
20743;SDS011;56303;52.160;-0.428;2022-10-13T02:36:38;12.80;;;8.00;;
20743;SDS011;56303;52.160;-0.428;2022-10-13T02:39:06;14.10;;;7.77;;
20743;SDS011;56303;52.160;-0.428;2022-10-13T02:41:34;13.93;;;7.87;;
20743;SDS011;56303;52.160;-0.428;2022-10-13T02:44:01;12.70;;;7.70;;
20743;SDS011;56303;52.160;-0.428;2022-10-13T02:46:28;14.23;;;8.27;;
20743;SDS011;56303;52.160;-0.428;2022-10-13T02:48:55;14.73;;;8.70;;
20743;SDS011;56303;52.160;-0.428;2022-10-13T02:51:22;13.07;;;7.63;;
20743;SDS011;56303;52.160;-0.428;2022-10-13T02:53:49;12.17;;;8.13;;
20743;SDS011;56303;52.160;-0.428;2022-10-13T02:56:15;15.80;;;8.40;;
20743;SDS011;56303;52.160;-0.428;2022-10-13T02:58:44;15.30;;;8.10;;
20743;SDS011;56303;52.160;-0.428;2022-10-13T03:01:12;14.27;;;8.20;;
20743;SDS011;56303;52.160;-0.428;2022-10-13T03:03:40;13.60;;;8.87;;
20743;SDS011;56303;52.160;-0.428;2022-10-13T03:06:07;14.10;;;7.50;;
20743;SDS011;56303;52.160;-0.428;2022-10-13T03:08:34;13.30;;;8.00;;
20743;SDS011;56303;52.160;-0.428;2022-10-13T03:11:01;12.30;;;8.10;;
20743;SDS011;56303;52.160;-0.428;2022-10-13T03:13:28;12.33;;;8.03;;
20743;SDS011;56303;52.160;-0.428;2022-10-13T03:15:55;12.20;;;7.50;;
20743;SDS011;56303;52.160;-0.428;2022-10-13T03:18:22;15.40;;;9.87;;
20743;SDS011;56303;52.160;-0.428;2022-10-13T03:20:56;12.77;;;7.67;;
20743;SDS011;56303;52.160;-0.428;2022-10-13T03:23:24;16.83;;;9.90;;
20743;SDS011;56303;52.160;-0.428;2022-10-13T03:25:51;13.43;;;9.17;;
20743;SDS011;56303;52.160;-0.428;2022-10-13T03:28:18;17.73;;;10.47;;
20743;SDS011;56303;52.160;-0.428;2022-10-13T03:30:46;14.87;;;8.73;;
20743;SDS011;56303;52.160;-0.428;2022-10-13T03:33:13;13.93;;;8.90;;
20743;SDS011;56303;52.160;-0.428;2022-10-13T03:35:40;12.17;;;8.53;;
20743;SDS011;56303;52.160;-0.428;2022-10-13T03:38:07;12.87;;;9.43;;
20743;SDS011;56303;52.160;-0.428;2022-10-13T03:40:34;12.67;;;9.20;;
20743;SDS011;56303;52.160;-0.428;2022-10-13T03:43:01;11.97;;;8.63;;
20743;SDS011;56303;52.160;-0.428;2022-10-13T03:45:28;15.10;;;9.50;;
20743;SDS011;56303;52.160;-0.428;2022-10-13T03:47:56;12.60;;;10.57;;
20743;SDS011;56303;52.160;-0.428;2022-10-13T03:50:23;15.00;;;9.27;;
20743;SDS011;56303;52.160;-0.428;2022-10-13T03:52:50;15.47;;;10.70;;
20743;SDS011;56303;52.160;-0.428;2022-10-13T03:55:17;12.90;;;8.57;;
20743;SDS011;56303;52.160;-0.428;2022-10-13T03:57:44;13.07;;;8.73;;
20743;SDS011;56303;52.160;-0.428;2022-10-13T04:00:11;13.90;;;9.47;;
20743;SDS011;56303;52.160;-0.428;2022-10-13T04:02:38;17.83;;;10.87;;
20743;SDS011;56303;52.160;-0.428;2022-10-13T04:05:05;20.80;;;14.17;;
20743;SDS011;56303;52.160;-0.428;2022-10-13T04:07:32;16.17;;;10.90;;
20743;SDS011;56303;52.160;-0.428;2022-10-13T04:09:59;15.57;;;10.77;;
20743;SDS011;56303;52.160;-0.428;2022-10-13T04:12:26;14.83;;;9.90;;
20743;SDS011;56303;52.160;-0.428;2022-10-13T04:14:53;15.67;;;10.87;;
20743;SDS011;56303;52.160;-0.428;2022-10-13T04:17:20;14.77;;;10.30;;
20743;SDS011;56303;52.160;-0.428;2022-10-13T04:19:46;19.27;;;12.17;;
20743;SDS011;56303;52.160;-0.428;2022-10-13T04:22:13;17.17;;;11.87;;
20743;SDS011;56303;52.160;-0.428;2022-10-13T04:24:40;18.67;;;11.40;;
20743;SDS011;56303;52.160;-0.428;2022-10-13T04:27:07;12.03;;;9.70;;
20743;SDS011;56303;52.160;-0.428;2022-10-13T04:29:33;14.17;;;10.53;;
20743;SDS011;56303;52.160;-0.428;2022-10-13T04:32:00;12.43;;;9.03;;
20743;SDS011;56303;52.160;-0.428;2022-10-13T04:34:27;12.20;;;9.70;;
20743;SDS011;56303;52.160;-0.428;2022-10-13T04:36:54;11.77;;;9.20;;
20743;SDS011;56303;52.160;-0.428;2022-10-13T04:39:21;13.43;;;9.10;;
20743;SDS011;56303;52.160;-0.428;2022-10-13T04:41:47;12.13;;;8.30;;
20743;SDS011;56303;52.160;-0.428;2022-10-13T04:44:14;12.47;;;9.13;;
20743;SDS011;56303;52.160;-0.428;2022-10-13T04:46:41;13.87;;;9.30;;
20743;SDS011;56303;52.160;-0.428;2022-10-13T04:49:08;15.77;;;8.87;;
20743;SDS011;56303;52.160;-0.428;2022-10-13T04:51:35;12.37;;;8.00;;
20743;SDS011;56303;52.160;-0.428;2022-10-13T04:54:01;11.63;;;8.43;;
20743;SDS011;56303;52.160;-0.428;2022-10-13T04:56:30;10.93;;;7.80;;
20743;SDS011;56303;52.160;-0.428;2022-10-13T04:58:57;13.83;;;8.07;;
20743;SDS011;56303;52.160;-0.428;2022-10-13T05:01:25;24.77;;;10.90;;
20743;SDS011;56303;52.160;-0.428;2022-10-13T05:03:53;39.67;;;14.43;;
20743;SDS011;56303;52.160;-0.428;2022-10-13T05:06:22;37.37;;;11.03;;
20743;SDS011;56303;52.160;-0.428;2022-10-13T05:08:56;53.97;;;13.37;;
20743;SDS011;56303;52.160;-0.428;2022-10-13T05:11:23;73.27;;;17.47;;
20743;SDS011;56303;52.160;-0.428;2022-10-13T05:13:51;35.97;;;10.27;;
20743;SDS011;56303;52.160;-0.428;2022-10-13T05:16:19;143.77;;;24.80;;
20743;SDS011;56303;52.160;-0.428;2022-10-13T05:18:47;37.53;;;12.30;;
20743;SDS011;56303;52.160;-0.428;2022-10-13T05:21:16;39.20;;;14.53;;
20743;SDS011;56303;52.160;-0.428;2022-10-13T05:23:46;21.87;;;9.90;;
20743;SDS011;56303;52.160;-0.428;2022-10-13T05:26:16;105.23;;;20.23;;
20743;SDS011;56303;52.160;-0.428;2022-10-13T05:28:43;68.70;;;17.17;;
20743;SDS011;56303;52.160;-0.428;2022-10-13T05:31:12;40.93;;;11.33;;
20743;SDS011;56303;52.160;-0.428;2022-10-13T05:33:39;35.37;;;13.50;;
20743;SDS011;56303;52.160;-0.428;2022-10-13T05:36:08;30.27;;;9.47;;
20743;SDS011;56303;52.160;-0.428;2022-10-13T05:38:36;22.53;;;9.67;;
20743;SDS011;56303;52.160;-0.428;2022-10-13T05:41:07;22.17;;;9.43;;
20743;SDS011;56303;52.160;-0.428;2022-10-13T05:43:36;29.47;;;15.10;;
20743;SDS011;56303;52.160;-0.428;2022-10-13T05:46:04;50.23;;;16.83;;
20743;SDS011;56303;52.160;-0.428;2022-10-13T05:48:31;17.20;;;11.37;;
20743;SDS011;56303;52.160;-0.428;2022-10-13T05:50:58;89.33;;;26.00;;
20743;SDS011;56303;52.160;-0.428;2022-10-13T05:53:27;34.47;;;14.00;;
20743;SDS011;56303;52.160;-0.428;2022-10-13T05:55:57;30.27;;;15.43;;
20743;SDS011;56303;52.160;-0.428;2022-10-13T05:58:35;49.57;;;20.97;;
20743;SDS011;56303;52.160;-0.428;2022-10-13T06:01:09;18.20;;;12.73;;
20743;SDS011;56303;52.160;-0.428;2022-10-13T06:03:40;24.03;;;15.97;;
20743;SDS011;56303;52.160;-0.428;2022-10-13T06:06:09;23.00;;;13.80;;
20743;SDS011;56303;52.160;-0.428;2022-10-13T06:08:36;20.67;;;13.93;;
20743;SDS011;56303;52.160;-0.428;2022-10-13T06:11:03;14.83;;;11.63;;
20743;SDS011;56303;52.160;-0.428;2022-10-13T06:13:32;27.17;;;16.97;;
20743;SDS011;56303;52.160;-0.428;2022-10-13T06:15:59;14.47;;;13.03;;
20743;SDS011;56303;52.160;-0.428;2022-10-13T06:18:25;15.63;;;13.87;;
20743;SDS011;56303;52.160;-0.428;2022-10-13T06:20:53;20.10;;;16.20;;
20743;SDS011;56303;52.160;-0.428;2022-10-13T06:23:20;22.50;;;18.00;;
20743;SDS011;56303;52.160;-0.428;2022-10-13T06:25:50;21.90;;;17.57;;
20743;SDS011;56303;52.160;-0.428;2022-10-13T06:28:18;14.97;;;12.30;;
20743;SDS011;56303;52.160;-0.428;2022-10-13T06:30:47;12.60;;;10.70;;
20743;SDS011;56303;52.160;-0.428;2022-10-13T06:33:19;15.37;;;12.90;;
20743;SDS011;56303;52.160;-0.428;2022-10-13T06:35:46;19.60;;;14.97;;
20743;SDS011;56303;52.160;-0.428;2022-10-13T06:38:13;18.27;;;14.03;;
20743;SDS011;56303;52.160;-0.428;2022-10-13T06:40:40;14.63;;;12.27;;
20743;SDS011;56303;52.160;-0.428;2022-10-13T06:43:08;18.93;;;13.73;;
20743;SDS011;56303;52.160;-0.428;2022-10-13T06:45:35;16.47;;;13.20;;
20743;SDS011;56303;52.160;-0.428;2022-10-13T06:48:02;16.13;;;13.23;;
20743;SDS011;56303;52.160;-0.428;2022-10-13T06:50:29;13.50;;;11.93;;
20743;SDS011;56303;52.160;-0.428;2022-10-13T06:52:57;15.57;;;11.57;;
20743;SDS011;56303;52.160;-0.428;2022-10-13T06:55:24;13.27;;;11.87;;
20743;SDS011;56303;52.160;-0.428;2022-10-13T06:57:51;15.77;;;12.73;;
20743;SDS011;56303;52.160;-0.428;2022-10-13T07:00:18;14.43;;;11.37;;
20743;SDS011;56303;52.160;-0.428;2022-10-13T07:02:48;25.27;;;15.30;;
20743;SDS011;56303;52.160;-0.428;2022-10-13T07:05:16;66.43;;;25.07;;
20743;SDS011;56303;52.160;-0.428;2022-10-13T07:07:43;23.63;;;12.70;;
20743;SDS011;56303;52.160;-0.428;2022-10-13T07:10:10;159.63;;;35.83;;
20743;SDS011;56303;52.160;-0.428;2022-10-13T07:12:37;64.07;;;16.60;;
20743;SDS011;56303;52.160;-0.428;2022-10-13T07:15:04;37.50;;;14.80;;
20743;SDS011;56303;52.160;-0.428;2022-10-13T07:17:31;25.57;;;14.50;;
20743;SDS011;56303;52.160;-0.428;2022-10-13T07:19:57;140.17;;;28.07;;
20743;SDS011;56303;52.160;-0.428;2022-10-13T07:22:30;39.23;;;15.47;;
20743;SDS011;56303;52.160;-0.428;2022-10-13T07:24:57;460.60;;;46.30;;
20743;SDS011;56303;52.160;-0.428;2022-10-13T07:27:24;467.90;;;58.07;;
20743;SDS011;56303;52.160;-0.428;2022-10-13T07:29:51;36.80;;;13.03;;
20743;SDS011;56303;52.160;-0.428;2022-10-13T07:32:18;40.30;;;18.67;;
20743;SDS011;56303;52.160;-0.428;2022-10-13T07:34:44;52.17;;;17.93;;
20743;SDS011;56303;52.160;-0.428;2022-10-13T07:37:11;174.20;;;33.10;;
20743;SDS011;56303;52.160;-0.428;2022-10-13T07:39:38;95.07;;;23.77;;
20743;SDS011;56303;52.160;-0.428;2022-10-13T07:42:05;37.57;;;18.17;;
20743;SDS011;56303;52.160;-0.428;2022-10-13T07:44:31;20.33;;;13.97;;
20743;SDS011;56303;52.160;-0.428;2022-10-13T07:46:58;19.83;;;14.43;;
20743;SDS011;56303;52.160;-0.428;2022-10-13T07:49:25;51.80;;;21.60;;
20743;SDS011;56303;52.160;-0.428;2022-10-13T07:51:51;55.53;;;24.23;;
20743;SDS011;56303;52.160;-0.428;2022-10-13T07:54:18;20.57;;;15.37;;
20743;SDS011;56303;52.160;-0.428;2022-10-13T07:56:52;14.40;;;12.73;;
20743;SDS011;56303;52.160;-0.428;2022-10-13T07:59:21;17.57;;;15.43;;
20743;SDS011;56303;52.160;-0.428;2022-10-13T08:01:48;18.13;;;15.27;;
20743;SDS011;56303;52.160;-0.428;2022-10-13T08:04:15;18.63;;;16.60;;
20743;SDS011;56303;52.160;-0.428;2022-10-13T08:06:42;22.07;;;15.20;;
20743;SDS011;56303;52.160;-0.428;2022-10-13T08:09:09;15.97;;;14.30;;
20743;SDS011;56303;52.160;-0.428;2022-10-13T08:11:36;26.00;;;18.80;;
20743;SDS011;56303;52.160;-0.428;2022-10-13T08:14:04;17.73;;;15.93;;
20743;SDS011;56303;52.160;-0.428;2022-10-13T08:16:31;19.90;;;17.10;;
20743;SDS011;56303;52.160;-0.428;2022-10-13T08:18:58;18.40;;;16.43;;
20743;SDS011;56303;52.160;-0.428;2022-10-13T08:21:26;22.53;;;18.03;;
20743;SDS011;56303;52.160;-0.428;2022-10-13T08:24:15;17.73;;;15.90;;
20743;SDS011;56303;52.160;-0.428;2022-10-13T08:26:43;17.77;;;15.97;;
20743;SDS011;56303;52.160;-0.428;2022-10-13T08:29:12;20.00;;;17.90;;
20743;SDS011;56303;52.160;-0.428;2022-10-13T08:31:48;21.07;;;17.37;;
20743;SDS011;56303;52.160;-0.428;2022-10-13T08:34:18;20.97;;;18.67;;
20743;SDS011;56303;52.160;-0.428;2022-10-13T08:36:45;21.47;;;16.83;;
20743;SDS011;56303;52.160;-0.428;2022-10-13T08:39:12;20.90;;;18.50;;
20743;SDS011;56303;52.160;-0.428;2022-10-13T08:41:40;20.83;;;18.63;;
20743;SDS011;56303;52.160;-0.428;2022-10-13T08:44:15;17.17;;;15.47;;
20743;SDS011;56303;52.160;-0.428;2022-10-13T08:50:01;24.03;;;18.10;;
20743;SDS011;56303;52.160;-0.428;2022-10-13T08:52:49;19.37;;;17.17;;
20743;SDS011;56303;52.160;-0.428;2022-10-13T08:55:50;20.33;;;15.73;;
20743;SDS011;56303;52.160;-0.428;2022-10-13T08:58:26;16.63;;;14.87;;
20743;SDS011;56303;52.160;-0.428;2022-10-13T09:00:59;15.17;;;13.57;;
20743;SDS011;56303;52.160;-0.428;2022-10-13T09:03:37;15.43;;;13.63;;
20743;SDS011;56303;52.160;-0.428;2022-10-13T09:08:55;12.67;;;10.70;;
20743;SDS011;56303;52.160;-0.428;2022-10-13T09:11:51;14.20;;;10.03;;
20743;SDS011;56303;52.160;-0.428;2022-10-13T09:14:22;13.63;;;9.83;;
20743;SDS011;56303;52.160;-0.428;2022-10-13T09:17:04;15.00;;;9.73;;
20743;SDS011;56303;52.160;-0.428;2022-10-13T09:22:35;10.67;;;9.57;;
20743;SDS011;56303;52.160;-0.428;2022-10-13T09:35:47;14.53;;;9.23;;
20743;SDS011;56303;52.160;-0.428;2022-10-13T09:38:19;16.33;;;9.60;;
20743;SDS011;56303;52.160;-0.428;2022-10-13T09:43:36;14.87;;;10.33;;
20743;SDS011;56303;52.160;-0.428;2022-10-13T09:46:10;16.67;;;10.40;;
20743;SDS011;56303;52.160;-0.428;2022-10-13T09:48:48;13.30;;;9.13;;
20743;SDS011;56303;52.160;-0.428;2022-10-13T09:54:05;11.20;;;8.97;;
20743;SDS011;56303;52.160;-0.428;2022-10-13T09:56:50;12.60;;;8.87;;
20743;SDS011;56303;52.160;-0.428;2022-10-13T09:59:35;17.70;;;9.50;;
20743;SDS011;56303;52.160;-0.428;2022-10-13T10:05:00;12.20;;;8.47;;
20743;SDS011;56303;52.160;-0.428;2022-10-13T10:07:32;16.67;;;10.13;;
20743;SDS011;56303;52.160;-0.428;2022-10-13T10:10:00;21.47;;;10.57;;
20743;SDS011;56303;52.160;-0.428;2022-10-13T10:12:31;12.97;;;9.73;;
20743;SDS011;56303;52.160;-0.428;2022-10-13T10:15:02;12.97;;;9.47;;
20743;SDS011;56303;52.160;-0.428;2022-10-13T10:17:43;9.90;;;8.70;;
20743;SDS011;56303;52.160;-0.428;2022-10-13T10:20:31;12.20;;;8.77;;
20743;SDS011;56303;52.160;-0.428;2022-10-13T10:23:06;11.53;;;8.93;;
20743;SDS011;56303;52.160;-0.428;2022-10-13T10:28:15;13.40;;;9.73;;
20743;SDS011;56303;52.160;-0.428;2022-10-13T10:30:55;13.97;;;10.53;;
20743;SDS011;56303;52.160;-0.428;2022-10-13T10:36:12;14.63;;;9.60;;
20743;SDS011;56303;52.160;-0.428;2022-10-13T10:38:51;12.77;;;10.77;;
20743;SDS011;56303;52.160;-0.428;2022-10-13T10:41:40;13.17;;;10.43;;
20743;SDS011;56303;52.160;-0.428;2022-10-13T10:47:00;13.23;;;9.83;;
20743;SDS011;56303;52.160;-0.428;2022-10-13T10:49:31;13.83;;;8.77;;
20743;SDS011;56303;52.160;-0.428;2022-10-13T10:52:01;12.90;;;9.67;;
20743;SDS011;56303;52.160;-0.428;2022-10-13T10:54:40;12.53;;;9.93;;
20743;SDS011;56303;52.160;-0.428;2022-10-13T11:00:12;15.27;;;10.10;;
20743;SDS011;56303;52.160;-0.428;2022-10-13T11:05:17;13.13;;;8.80;;
20743;SDS011;56303;52.160;-0.428;2022-10-13T11:13:05;12.33;;;8.27;;
20743;SDS011;56303;52.160;-0.428;2022-10-13T11:15:42;9.90;;;8.53;;
20743;SDS011;56303;52.160;-0.428;2022-10-13T11:21:20;11.53;;;8.20;;
20743;SDS011;56303;52.160;-0.428;2022-10-13T11:23:48;14.50;;;9.80;;
20743;SDS011;56303;52.160;-0.428;2022-10-13T11:28:56;12.43;;;8.80;;
20743;SDS011;56303;52.160;-0.428;2022-10-13T11:31:25;14.33;;;9.93;;
20743;SDS011;56303;52.160;-0.428;2022-10-13T11:34:01;13.73;;;8.50;;
20743;SDS011;56303;52.160;-0.428;2022-10-13T11:52:39;13.30;;;8.63;;
20743;SDS011;56303;52.160;-0.428;2022-10-13T11:58:22;12.60;;;7.97;;
20743;SDS011;56303;52.160;-0.428;2022-10-13T12:00:57;9.87;;;7.90;;
20743;SDS011;56303;52.160;-0.428;2022-10-13T12:03:32;11.70;;;7.77;;
20743;SDS011;56303;52.160;-0.428;2022-10-13T12:08:44;11.87;;;8.13;;
20743;SDS011;56303;52.160;-0.428;2022-10-13T12:11:29;7.23;;;5.80;;
20743;SDS011;56303;52.160;-0.428;2022-10-13T12:13:59;10.60;;;6.70;;
20743;SDS011;56303;52.160;-0.428;2022-10-13T12:16:26;12.20;;;6.83;;
20743;SDS011;56303;52.160;-0.428;2022-10-13T12:19:07;13.40;;;6.07;;
20743;SDS011;56303;52.160;-0.428;2022-10-13T12:21:53;9.63;;;5.43;;
20743;SDS011;56303;52.160;-0.428;2022-10-13T12:24:24;11.70;;;5.50;;
20743;SDS011;56303;52.160;-0.428;2022-10-13T12:27:01;9.73;;;7.40;;
20743;SDS011;56303;52.160;-0.428;2022-10-13T12:29:47;13.67;;;7.77;;
20743;SDS011;56303;52.160;-0.428;2022-10-13T12:32:27;11.30;;;7.00;;
20743;SDS011;56303;52.160;-0.428;2022-10-13T12:35:22;10.60;;;7.20;;
20743;SDS011;56303;52.160;-0.428;2022-10-13T12:37:51;11.43;;;7.03;;
20743;SDS011;56303;52.160;-0.428;2022-10-13T12:40:20;10.13;;;7.73;;
20743;SDS011;56303;52.160;-0.428;2022-10-13T12:42:48;9.70;;;7.53;;
20743;SDS011;56303;52.160;-0.428;2022-10-13T12:45:16;9.90;;;6.33;;
20743;SDS011;56303;52.160;-0.428;2022-10-13T12:47:52;9.60;;;6.97;;
20743;SDS011;56303;52.160;-0.428;2022-10-13T12:53:08;10.93;;;6.33;;
20743;SDS011;56303;52.160;-0.428;2022-10-13T12:58:25;9.83;;;6.33;;
20743;SDS011;56303;52.160;-0.428;2022-10-13T13:01:06;8.93;;;6.50;;
20743;SDS011;56303;52.160;-0.428;2022-10-13T13:03:40;7.73;;;5.57;;
20743;SDS011;56303;52.160;-0.428;2022-10-13T13:08:39;8.00;;;5.83;;
20743;SDS011;56303;52.160;-0.428;2022-10-13T13:11:23;9.20;;;5.90;;
20743;SDS011;56303;52.160;-0.428;2022-10-13T13:17:08;9.13;;;5.40;;
20743;SDS011;56303;52.160;-0.428;2022-10-13T13:19:42;8.43;;;5.83;;
20743;SDS011;56303;52.160;-0.428;2022-10-13T13:22:14;12.90;;;6.70;;
20743;SDS011;56303;52.160;-0.428;2022-10-13T13:24:41;10.10;;;5.87;;
20743;SDS011;56303;52.160;-0.428;2022-10-13T13:27:16;8.33;;;4.20;;
20743;SDS011;56303;52.160;-0.428;2022-10-13T13:29:46;6.43;;;3.30;;
20743;SDS011;56303;52.160;-0.428;2022-10-13T13:32:13;5.93;;;3.00;;
20743;SDS011;56303;52.160;-0.428;2022-10-13T13:34:45;6.40;;;3.03;;
20743;SDS011;56303;52.160;-0.428;2022-10-13T13:37:15;6.87;;;3.67;;
20743;SDS011;56303;52.160;-0.428;2022-10-13T13:39:49;10.00;;;4.10;;
20743;SDS011;56303;52.160;-0.428;2022-10-13T13:42:16;6.67;;;3.67;;
20743;SDS011;56303;52.160;-0.428;2022-10-13T13:44:43;6.90;;;4.50;;
20743;SDS011;56303;52.160;-0.428;2022-10-13T13:47:43;10.60;;;6.03;;
20743;SDS011;56303;52.160;-0.428;2022-10-13T13:50:03;7.97;;;4.30;;
20743;SDS011;56303;52.160;-0.428;2022-10-13T13:52:34;6.97;;;4.50;;
20743;SDS011;56303;52.160;-0.428;2022-10-13T13:55:01;9.07;;;4.73;;
20743;SDS011;56303;52.160;-0.428;2022-10-13T13:57:28;10.17;;;4.40;;
20743;SDS011;56303;52.160;-0.428;2022-10-13T13:59:55;5.80;;;4.00;;
20743;SDS011;56303;52.160;-0.428;2022-10-13T14:02:22;6.43;;;4.20;;
20743;SDS011;56303;52.160;-0.428;2022-10-13T14:04:48;6.80;;;3.90;;
20743;SDS011;56303;52.160;-0.428;2022-10-13T14:07:16;7.20;;;3.87;;
20743;SDS011;56303;52.160;-0.428;2022-10-13T14:09:44;7.40;;;4.37;;
20743;SDS011;56303;52.160;-0.428;2022-10-13T14:12:11;7.60;;;4.23;;
20743;SDS011;56303;52.160;-0.428;2022-10-13T14:14:37;12.30;;;4.83;;
20743;SDS011;56303;52.160;-0.428;2022-10-13T14:17:04;6.97;;;4.13;;
20743;SDS011;56303;52.160;-0.428;2022-10-13T14:19:31;9.73;;;4.07;;
20743;SDS011;56303;52.160;-0.428;2022-10-13T14:21:58;7.27;;;4.27;;
20743;SDS011;56303;52.160;-0.428;2022-10-13T14:24:32;6.90;;;3.97;;
20743;SDS011;56303;52.160;-0.428;2022-10-13T14:26:59;8.07;;;4.30;;
20743;SDS011;56303;52.160;-0.428;2022-10-13T14:29:26;7.30;;;4.20;;
20743;SDS011;56303;52.160;-0.428;2022-10-13T14:31:56;8.03;;;4.33;;
20743;SDS011;56303;52.160;-0.428;2022-10-13T14:34:23;5.33;;;3.10;;
20743;SDS011;56303;52.160;-0.428;2022-10-13T14:36:50;5.27;;;3.40;;
20743;SDS011;56303;52.160;-0.428;2022-10-13T14:39:17;6.03;;;3.63;;
20743;SDS011;56303;52.160;-0.428;2022-10-13T14:41:43;5.43;;;3.60;;
20743;SDS011;56303;52.160;-0.428;2022-10-13T14:44:11;5.60;;;3.50;;
20743;SDS011;56303;52.160;-0.428;2022-10-13T14:46:39;6.40;;;3.77;;
20743;SDS011;56303;52.160;-0.428;2022-10-13T14:49:06;7.27;;;3.80;;
20743;SDS011;56303;52.160;-0.428;2022-10-13T14:51:34;7.80;;;3.80;;
20743;SDS011;56303;52.160;-0.428;2022-10-13T14:54:02;8.37;;;4.90;;
20743;SDS011;56303;52.160;-0.428;2022-10-13T14:56:29;7.37;;;4.50;;
20743;SDS011;56303;52.160;-0.428;2022-10-13T14:58:57;5.90;;;3.10;;
20743;SDS011;56303;52.160;-0.428;2022-10-13T15:01:27;5.80;;;3.20;;
20743;SDS011;56303;52.160;-0.428;2022-10-13T15:03:54;7.93;;;3.93;;
20743;SDS011;56303;52.160;-0.428;2022-10-13T15:06:23;5.53;;;3.73;;
20743;SDS011;56303;52.160;-0.428;2022-10-13T15:08:51;6.97;;;3.77;;
20743;SDS011;56303;52.160;-0.428;2022-10-13T15:11:18;7.27;;;3.60;;
20743;SDS011;56303;52.160;-0.428;2022-10-13T15:13:46;9.90;;;4.13;;
20743;SDS011;56303;52.160;-0.428;2022-10-13T15:16:17;6.30;;;3.20;;
20743;SDS011;56303;52.160;-0.428;2022-10-13T15:18:45;7.97;;;3.83;;
20743;SDS011;56303;52.160;-0.428;2022-10-13T15:21:12;5.57;;;3.63;;
20743;SDS011;56303;52.160;-0.428;2022-10-13T15:23:39;6.57;;;4.03;;
20743;SDS011;56303;52.160;-0.428;2022-10-13T15:26:07;7.80;;;4.73;;
20743;SDS011;56303;52.160;-0.428;2022-10-13T15:28:36;8.90;;;4.73;;
20743;SDS011;56303;52.160;-0.428;2022-10-13T15:31:05;11.53;;;5.00;;
20743;SDS011;56303;52.160;-0.428;2022-10-13T15:33:32;8.30;;;4.93;;
20743;SDS011;56303;52.160;-0.428;2022-10-13T15:35:59;10.00;;;4.50;;
20743;SDS011;56303;52.160;-0.428;2022-10-13T15:38:26;5.57;;;3.90;;
20743;SDS011;56303;52.160;-0.428;2022-10-13T15:40:59;6.60;;;4.17;;
20743;SDS011;56303;52.160;-0.428;2022-10-13T15:43:29;7.03;;;3.70;;
20743;SDS011;56303;52.160;-0.428;2022-10-13T15:46:04;7.93;;;4.03;;
20743;SDS011;56303;52.160;-0.428;2022-10-13T15:48:33;9.27;;;3.97;;
20743;SDS011;56303;52.160;-0.428;2022-10-13T15:51:00;8.03;;;4.20;;
20743;SDS011;56303;52.160;-0.428;2022-10-13T15:53:28;7.80;;;3.90;;
20743;SDS011;56303;52.160;-0.428;2022-10-13T15:55:55;6.43;;;3.97;;
20743;SDS011;56303;52.160;-0.428;2022-10-13T15:58:22;7.60;;;3.70;;
20743;SDS011;56303;52.160;-0.428;2022-10-13T16:00:48;6.43;;;3.37;;
20743;SDS011;56303;52.160;-0.428;2022-10-13T16:03:16;6.63;;;3.90;;
20743;SDS011;56303;52.160;-0.428;2022-10-13T16:05:44;8.30;;;4.10;;
20743;SDS011;56303;52.160;-0.428;2022-10-13T16:08:12;8.33;;;4.70;;
20743;SDS011;56303;52.160;-0.428;2022-10-13T16:10:40;7.17;;;4.00;;
20743;SDS011;56303;52.160;-0.428;2022-10-13T16:13:08;9.97;;;4.50;;
20743;SDS011;56303;52.160;-0.428;2022-10-13T16:15:38;6.93;;;3.83;;
20743;SDS011;56303;52.160;-0.428;2022-10-13T16:18:05;8.03;;;4.70;;
20743;SDS011;56303;52.160;-0.428;2022-10-13T16:20:31;14.63;;;8.90;;
20743;SDS011;56303;52.160;-0.428;2022-10-13T16:23:03;12.33;;;8.90;;